createdAt,value
2019-05-28T00:00:02.919Z,87.24
2019-05-28T00:05:01.241Z,87.3
2019-05-28T00:10:01.535Z,87.72
2019-05-28T00:15:01.859Z,88.15
2019-05-28T00:20:01.971Z,88.64
2019-05-28T00:25:02.108Z,89.14
2019-05-28T00:30:16.339Z,90.41
2019-05-28T00:35:01.855Z,90.19
2019-05-28T00:40:02.752Z,91.1
2019-05-28T00:45:02.024Z,91.23
2019-05-28T00:50:01.288Z,91.64
2019-05-28T00:55:01.461Z,91.78
2019-05-28T01:00:01.649Z,91.66
2019-05-28T01:05:01.866Z,91.76
2019-05-28T01:10:02.144Z,92.47
2019-05-28T01:15:01.740Z,92.82
2019-05-28T01:20:01.877Z,93.25
2019-05-28T01:25:01.987Z,93.55
2019-05-28T01:30:01.121Z,93.68
2019-05-28T01:35:01.462Z,94.03
2019-05-28T01:40:01.591Z,94.51
2019-05-28T01:45:02.015Z,94.83
2019-05-28T01:50:01.117Z,94.69
2019-05-28T01:55:01.304Z,94.72
2019-05-28T02:00:01.478Z,94.73
2019-05-28T02:05:01.625Z,94.54
2019-05-28T02:10:01.766Z,95.04
2019-05-28T02:15:01.953Z,94.73
2019-05-28T02:20:02.069Z,94.87
2019-05-28T02:25:01.214Z,94.92
2019-05-28T02:30:01.322Z,95.15
2019-05-28T02:35:01.566Z,95.6
2019-05-28T02:40:01.548Z,95.62
2019-05-28T02:45:01.675Z,95.63
2019-05-28T02:50:01.809Z,95.61
2019-05-28T02:55:01.963Z,95.77
2019-05-28T03:00:02.006Z,95.89
2019-05-28T03:05:01.114Z,95.22
2019-05-28T03:10:01.202Z,95.12
2019-05-28T03:15:01.405Z,95.06
2019-05-28T03:20:01.514Z,95.09
2019-05-28T03:25:01.662Z,94.85
2019-05-28T03:30:01.805Z,94.7
2019-05-28T03:35:01.945Z,94.31
2019-05-28T03:40:02.071Z,94.5
2019-05-28T03:45:01.177Z,94.45
2019-05-28T03:50:01.272Z,94.06
2019-05-28T03:55:01.418Z,94.05
2019-05-28T04:00:01.542Z,93.6
2019-05-28T04:05:01.667Z,93.24
2019-05-28T04:10:01.824Z,93.31
2019-05-28T04:15:02.025Z,93.57
2019-05-28T04:20:01.123Z,93.06
2019-05-28T04:25:01.217Z,93.33
2019-05-28T04:30:01.378Z,93.79
2019-05-28T04:35:01.681Z,94.06
2019-05-28T04:40:01.257Z,93.39
2019-05-28T04:45:01.406Z,93.96
2019-05-28T04:50:01.505Z,94.3
2019-05-28T04:55:01.399Z,94.6
2019-05-28T05:00:01.498Z,94.62
2019-05-28T05:05:01.601Z,94.38
2019-05-28T05:10:01.743Z,94.09
2019-05-28T05:15:02.278Z,94.54
2019-05-28T05:20:01.708Z,93.86
2019-05-28T05:25:02.107Z,92.82
2019-05-28T05:30:01.311Z,92.52
2019-05-28T05:35:01.468Z,92.68
2019-05-28T05:40:01.727Z,92.87
2019-05-28T05:45:01.835Z,91.94
2019-05-28T05:50:01.940Z,91.42
2019-05-28T05:55:02.185Z,89.84
2019-05-28T06:00:01.346Z,89.81
2019-05-28T06:05:01.466Z,88.19
2019-05-28T06:10:01.629Z,87.16
2019-05-28T06:15:01.949Z,85.24
2019-05-28T06:20:01.147Z,85.96
2019-05-28T06:25:01.289Z,84.3
2019-05-28T06:30:01.450Z,82.21
2019-05-28T06:35:01.595Z,82.5
2019-05-28T06:40:01.721Z,82.39
2019-05-28T06:45:01.867Z,82.8
2019-05-28T06:50:01.961Z,83.38
2019-05-28T06:55:02.141Z,83.85
2019-05-28T07:00:01.270Z,83.47
2019-05-28T07:05:01.383Z,82.38
2019-05-28T07:10:01.519Z,83.58
2019-05-28T07:15:01.990Z,85.66
2019-05-28T07:20:01.185Z,84.35
2019-05-28T07:25:01.268Z,82.69
2019-05-28T07:30:01.362Z,81.57
2019-05-28T07:35:01.499Z,82.41
2019-05-28T07:40:01.624Z,81.82
2019-05-28T07:45:02.051Z,79.87
2019-05-28T07:50:01.335Z,78.08
2019-05-28T07:55:01.506Z,76.55
2019-05-28T08:00:05.407Z,79
2019-05-28T08:05:01.955Z,76.71
2019-05-28T08:10:02.056Z,77.04
2019-05-28T08:15:01.199Z,77.27
2019-05-28T08:20:01.367Z,77.64
2019-05-28T08:25:01.500Z,74.72
2019-05-28T08:30:01.682Z,75.25
2019-05-28T08:35:05.348Z,73.04
2019-05-28T08:40:01.300Z,74.75
2019-05-28T08:45:01.435Z,76.42
2019-05-28T08:50:01.543Z,78.61
2019-05-28T08:55:01.736Z,78.36
2019-05-28T09:00:02.031Z,76.7
2019-05-28T09:05:01.187Z,70.76
2019-05-28T09:10:01.314Z,66.5
2019-05-28T09:15:01.463Z,67.06
2019-05-28T09:20:01.572Z,68.73
2019-05-28T09:25:01.709Z,72.48
2019-05-28T09:30:01.841Z,72.91
2019-05-28T09:35:02.915Z,76.44
2019-05-28T09:40:01.181Z,72.25
2019-05-28T09:45:01.308Z,69.41
2019-05-28T09:50:01.408Z,71.81
2019-05-28T09:55:01.523Z,71.43
2019-05-28T10:00:01.667Z,70.42
2019-05-28T10:05:01.775Z,69.9
2019-05-28T10:10:01.921Z,71.78
2019-05-28T10:15:02.139Z,75.33
2019-05-28T10:20:01.239Z,77.2
2019-05-28T10:25:01.324Z,80.8
2019-05-28T10:30:01.446Z,87.85
2019-05-28T10:35:04.226Z,94.69
2019-05-28T10:40:01.610Z,97.48
2019-05-28T10:45:01.718Z,97.03
2019-05-28T10:50:01.813Z,94.64
2019-05-28T10:55:02.908Z,90.42
2019-05-28T11:00:01.239Z,88.97
2019-05-28T11:05:01.417Z,87.15
2019-05-28T11:10:01.547Z,88.43
2019-05-28T11:15:01.714Z,85.95
2019-05-28T11:20:01.829Z,84.86
2019-05-28T11:25:01.982Z,86.25
2019-05-28T11:30:01.134Z,84.97
2019-05-28T11:35:01.267Z,83.26
2019-05-28T11:40:01.408Z,83.65
2019-05-28T11:45:01.698Z,84.28
2019-05-28T11:50:02.335Z,86.25
2019-05-28T11:55:01.670Z,89.57
2019-05-28T12:00:01.819Z,88.28
2019-05-28T12:05:02.047Z,89.18
2019-05-28T12:10:01.248Z,86.2
2019-05-28T12:15:01.529Z,86.01
2019-05-28T12:20:01.661Z,86.97
2019-05-28T12:25:02.166Z,83.14
2019-05-28T12:30:01.573Z,83.75
2019-05-28T12:35:01.700Z,83.24
2019-05-28T12:40:01.846Z,80.19
2019-05-28T12:45:09.626Z,75.76
2019-05-28T12:50:18.549Z,78.16
2019-05-28T12:55:01.334Z,72.6
2019-05-28T13:00:01.547Z,71.95
2019-05-28T13:05:01.699Z,75.96
2019-05-28T13:10:02.021Z,75.79
2019-05-28T13:15:01.456Z,73.72
2019-05-28T13:20:01.770Z,77.72
2019-05-28T13:25:01.966Z,71.04
2019-05-28T13:30:02.382Z,71.42
2019-05-28T13:35:02.302Z,71.4
2019-05-28T13:40:01.614Z,72.93
2019-05-28T13:45:02.075Z,71.14
2019-05-28T13:50:01.521Z,71.33
2019-05-28T13:55:01.808Z,72.66
2019-05-28T14:00:01.976Z,73.55
2019-05-28T14:05:01.086Z,69.05
2019-05-28T14:10:01.267Z,70.54
2019-05-28T14:15:01.416Z,71.18
2019-05-28T14:20:01.532Z,72.38
2019-05-28T14:25:01.702Z,70.79
2019-05-28T14:30:01.898Z,71.99
2019-05-28T14:35:02.005Z,70.79
2019-05-28T14:40:01.142Z,72.46
2019-05-28T14:45:01.273Z,73.45
2019-05-28T14:50:01.550Z,73.88
2019-05-28T14:55:01.689Z,72.59
2019-05-28T15:00:03.163Z,72.95
2019-05-28T15:05:01.681Z,73.89
2019-05-28T15:10:01.812Z,75.76
2019-05-28T15:15:01.954Z,74.1
2019-05-28T15:20:02.057Z,74.2
2019-05-28T15:25:01.190Z,75.49
2019-05-28T15:30:01.386Z,77.39
2019-05-28T15:35:01.531Z,77.66
2019-05-28T15:40:01.686Z,78.55
2019-05-28T15:45:01.826Z,77.6
2019-05-28T15:50:01.958Z,78.18
2019-05-28T15:55:02.088Z,79.07
2019-05-28T16:00:01.221Z,78.43
2019-05-28T16:05:01.356Z,77.31
2019-05-28T16:10:01.511Z,78.83
2019-05-28T16:15:01.635Z,78.35
2019-05-28T16:20:01.755Z,77.55
2019-05-28T16:25:01.891Z,77.59
2019-05-28T16:30:02.048Z,80.48
2019-05-28T16:35:01.150Z,77.76
2019-05-28T16:40:14.479Z,73.49
2019-05-28T16:45:01.368Z,75.71
2019-05-28T16:50:01.874Z,77.7
2019-05-28T16:55:01.167Z,80.73
2019-05-28T17:00:01.309Z,86.2
2019-05-28T17:05:01.421Z,89.48
2019-05-28T17:10:01.576Z,93.38
2019-05-28T17:15:01.721Z,93.37
2019-05-28T17:20:01.859Z,94.41
2019-05-28T17:25:01.996Z,94.84
2019-05-28T17:30:16.851Z,95.24
2019-05-28T17:35:01.958Z,94.2
2019-05-28T17:40:02.105Z,93.83
2019-05-28T17:45:01.235Z,93.48
2019-05-28T17:50:01.359Z,93.7
2019-05-28T17:55:01.539Z,94.33
2019-05-28T18:00:01.674Z,94.03
2019-05-28T18:05:02.226Z,93.56
2019-05-28T18:10:01.613Z,93.45
2019-05-28T18:15:01.708Z,94.32
2019-05-28T18:20:01.824Z,94.01
2019-05-28T18:25:01.911Z,94.93
2019-05-28T18:30:02.046Z,93.25
2019-05-28T18:35:01.204Z,93.68
2019-05-28T18:40:01.356Z,94.44
2019-05-28T18:45:01.493Z,93.9
2019-05-28T18:50:03.120Z,93.7
2019-05-28T18:55:02.956Z,93.58
2019-05-28T19:00:01.758Z,92.84
2019-05-28T19:05:01.891Z,91.46
2019-05-28T19:10:02.041Z,90.8
2019-05-28T19:15:01.180Z,88.52
2019-05-28T19:20:01.301Z,89.14
2019-05-28T19:25:01.393Z,87.4
2019-05-28T19:30:01.545Z,86.66
2019-05-28T19:35:01.759Z,85.58
2019-05-28T19:40:01.996Z,86.11
2019-05-28T19:45:01.133Z,85.92
2019-05-28T19:50:01.381Z,85.76
2019-05-28T19:55:01.564Z,86.49
2019-05-28T20:00:01.695Z,86.05
2019-05-28T20:05:01.830Z,86.72
2019-05-28T20:10:02.188Z,87.17
2019-05-28T20:15:01.818Z,87.2
2019-05-28T20:20:02.128Z,87.33
2019-05-28T20:25:01.281Z,87.3
2019-05-28T20:30:01.450Z,87.9
2019-05-28T20:35:01.590Z,87.25
2019-05-28T20:40:02.224Z,87.5
2019-05-28T20:45:02.476Z,86.24
2019-05-28T20:50:04.361Z,86.59
2019-05-28T20:55:01.770Z,85.75
2019-05-28T21:00:01.900Z,85.94
2019-05-28T21:05:02.008Z,86.33
2019-05-28T21:10:01.153Z,86.76
2019-05-28T21:15:01.272Z,86.56
2019-05-28T21:20:01.412Z,85.95
2019-05-28T21:25:01.537Z,86.17
2019-05-28T21:30:01.728Z,85.72
2019-05-28T21:35:02.770Z,85.84
2019-05-28T21:40:02.167Z,85.88
2019-05-28T21:45:02.538Z,85.9
2019-05-28T21:50:02.843Z,85.63
2019-05-28T21:55:03.493Z,85.09
2019-05-28T22:00:02.364Z,85.38
2019-05-28T22:05:03.450Z,85.12
2019-05-28T22:10:02.391Z,84.76
2019-05-28T22:15:02.236Z,84.65
2019-05-28T22:20:02.610Z,84.44
2019-05-28T22:25:02.700Z,84.42
2019-05-28T22:30:04.299Z,84.53
2019-05-28T22:35:02.076Z,84.34
2019-05-28T22:40:01.454Z,84.56
2019-05-28T22:45:01.624Z,84.56
2019-05-28T22:50:18.005Z,84.85
2019-05-28T22:55:01.804Z,85.16
2019-05-28T23:00:03.097Z,84.4
2019-05-28T23:05:01.280Z,84.53
2019-05-28T23:10:01.652Z,84.79
2019-05-28T23:15:02.007Z,84.63
2019-05-28T23:20:02.740Z,85.34
2019-05-28T23:25:03.212Z,84.89
2019-05-28T23:30:06.905Z,84.71
2019-05-28T23:35:02.516Z,84.71
2019-05-28T23:40:03.051Z,84.51
2019-05-28T23:45:01.269Z,84.31
2019-05-28T23:50:01.388Z,83.81
2019-05-28T23:55:01.513Z,83.87
